sensor_id;sensor_type;location;lat;lon;timestamp;temperature;humidity
46816;DHT22;32787;53.316;8.670;2023-12-04T00:00:37;-3275.60;94.40
46816;DHT22;32787;53.316;8.670;2023-12-04T00:03:03;-3275.50;94.40
46816;DHT22;32787;53.316;8.670;2023-12-04T00:05:28;-3275.40;94.20
46816;DHT22;32787;53.316;8.670;2023-12-04T00:07:54;-3275.40;94.20
46816;DHT22;32787;53.316;8.670;2023-12-04T00:10:20;-3275.30;94.30
46816;DHT22;32787;53.316;8.670;2023-12-04T00:12:46;-3275.30;94.40
46816;DHT22;32787;53.316;8.670;2023-12-04T00:15:11;-3275.40;94.40
46816;DHT22;32787;53.316;8.670;2023-12-04T00:17:37;-3275.30;94.40
46816;DHT22;32787;53.316;8.670;2023-12-04T00:20:09;-3275.40;94.20
46816;DHT22;32787;53.316;8.670;2023-12-04T00:22:35;-3275.30;94.20
46816;DHT22;32787;53.316;8.670;2023-12-04T00:25:05;-3275.30;94.10
46816;DHT22;32787;53.316;8.670;2023-12-04T00:27:32;-3275.40;94.00
46816;DHT22;32787;53.316;8.670;2023-12-04T00:29:57;-3275.40;94.10
46816;DHT22;32787;53.316;8.670;2023-12-04T00:32:23;-3275.50;93.80
46816;DHT22;32787;53.316;8.670;2023-12-04T00:34:49;-3275.40;93.70
46816;DHT22;32787;53.316;8.670;2023-12-04T00:37:15;-3275.40;93.80
46816;DHT22;32787;53.316;8.670;2023-12-04T00:39:40;-3275.50;93.80
46816;DHT22;32787;53.316;8.670;2023-12-04T00:42:06;-3275.40;93.80
46816;DHT22;32787;53.316;8.670;2023-12-04T00:44:32;-3275.50;93.80
46816;DHT22;32787;53.316;8.670;2023-12-04T00:46:57;-3275.50;93.60
46816;DHT22;32787;53.316;8.670;2023-12-04T00:49:23;-3275.50;93.50
46816;DHT22;32787;53.316;8.670;2023-12-04T00:51:49;-3275.50;93.50
46816;DHT22;32787;53.316;8.670;2023-12-04T00:54:15;-3275.40;93.30
46816;DHT22;32787;53.316;8.670;2023-12-04T00:56:41;-3275.40;93.30
46816;DHT22;32787;53.316;8.670;2023-12-04T00:59:10;-3275.30;93.50
46816;DHT22;32787;53.316;8.670;2023-12-04T01:01:37;-3275.40;93.50
46816;DHT22;32787;53.316;8.670;2023-12-04T01:04:03;-3275.50;93.00
46816;DHT22;32787;53.316;8.670;2023-12-04T01:06:29;-3275.40;93.00
46816;DHT22;32787;53.316;8.670;2023-12-04T01:08:55;-3275.40;93.00
46816;DHT22;32787;53.316;8.670;2023-12-04T01:11:21;-3275.40;93.00
46816;DHT22;32787;53.316;8.670;2023-12-04T01:13:47;-3275.40;92.80
46816;DHT22;32787;53.316;8.670;2023-12-04T01:16:13;-3275.40;92.90
46816;DHT22;32787;53.316;8.670;2023-12-04T01:18:38;-3275.40;92.90
46816;DHT22;32787;53.316;8.670;2023-12-04T01:21:04;-3275.40;92.90
46816;DHT22;32787;53.316;8.670;2023-12-04T01:23:30;-3275.40;92.90
46816;DHT22;32787;53.316;8.670;2023-12-04T01:25:55;-3275.40;92.80
46816;DHT22;32787;53.316;8.670;2023-12-04T01:28:21;-3275.50;93.00
46816;DHT22;32787;53.316;8.670;2023-12-04T01:30:47;-3275.60;92.80
46816;DHT22;32787;53.316;8.670;2023-12-04T01:33:12;-3275.50;92.60
46816;DHT22;32787;53.316;8.670;2023-12-04T01:35:38;-3275.50;92.60
46816;DHT22;32787;53.316;8.670;2023-12-04T01:38:04;-3275.40;92.80
46816;DHT22;32787;53.316;8.670;2023-12-04T01:40:29;-3275.40;92.90
46816;DHT22;32787;53.316;8.670;2023-12-04T01:42:55;-3275.40;92.70
46816;DHT22;32787;53.316;8.670;2023-12-04T01:45:20;-3275.50;92.80
46816;DHT22;32787;53.316;8.670;2023-12-04T01:47:46;-3275.40;92.80
46816;DHT22;32787;53.316;8.670;2023-12-04T01:50:12;-3275.50;92.70
46816;DHT22;32787;53.316;8.670;2023-12-04T01:52:41;-3275.50;92.50
46816;DHT22;32787;53.316;8.670;2023-12-04T01:55:08;-3275.60;92.40
46816;DHT22;32787;53.316;8.670;2023-12-04T01:57:35;-3275.70;92.20
46816;DHT22;32787;53.316;8.670;2023-12-04T02:00:01;-3275.70;92.00
46816;DHT22;32787;53.316;8.670;2023-12-04T02:02:30;-3275.70;92.00
46816;DHT22;32787;53.316;8.670;2023-12-04T02:04:55;-3275.70;92.00
46816;DHT22;32787;53.316;8.670;2023-12-04T02:07:22;-3275.70;92.00
46816;DHT22;32787;53.316;8.670;2023-12-04T02:09:48;-3275.60;92.00
46816;DHT22;32787;53.316;8.670;2023-12-04T02:12:14;-3275.60;92.00
46816;DHT22;32787;53.316;8.670;2023-12-04T02:14:40;-3275.60;92.00
46816;DHT22;32787;53.316;8.670;2023-12-04T02:17:06;-3275.60;92.30
46816;DHT22;32787;53.316;8.670;2023-12-04T02:19:33;-3275.60;92.50
46816;DHT22;32787;53.316;8.670;2023-12-04T02:21:59;-3275.60;92.30
46816;DHT22;32787;53.316;8.670;2023-12-04T02:24:25;-3275.70;92.20
46816;DHT22;32787;53.316;8.670;2023-12-04T02:26:54;-3275.80;92.10
46816;DHT22;32787;53.316;8.670;2023-12-04T02:29:34;-3275.70;91.60
46816;DHT22;32787;53.316;8.670;2023-12-04T02:32:04;-3275.80;91.80
46816;DHT22;32787;53.316;8.670;2023-12-04T02:34:32;-3275.70;91.90
46816;DHT22;32787;53.316;8.670;2023-12-04T02:36:59;-3275.70;92.10
46816;DHT22;32787;53.316;8.670;2023-12-04T02:39:27;-3275.60;92.00
46816;DHT22;32787;53.316;8.670;2023-12-04T02:41:52;-3275.70;92.30
46816;DHT22;32787;53.316;8.670;2023-12-04T02:44:18;-3275.80;92.40
46816;DHT22;32787;53.316;8.670;2023-12-04T02:46:44;-3275.80;92.00
46816;DHT22;32787;53.316;8.670;2023-12-04T02:49:09;-3275.70;92.00
46816;DHT22;32787;53.316;8.670;2023-12-04T02:51:35;-3275.70;92.20
46816;DHT22;32787;53.316;8.670;2023-12-04T02:54:01;-3275.70;92.20
46816;DHT22;32787;53.316;8.670;2023-12-04T02:56:26;-3275.70;92.30
46816;DHT22;32787;53.316;8.670;2023-12-04T02:58:52;-3275.80;92.60
46816;DHT22;32787;53.316;8.670;2023-12-04T03:01:18;-3275.80;92.20
46816;DHT22;32787;53.316;8.670;2023-12-04T03:03:43;-3275.80;92.40
46816;DHT22;32787;53.316;8.670;2023-12-04T03:06:09;-3275.80;92.40
46816;DHT22;32787;53.316;8.670;2023-12-04T03:08:34;-3275.80;92.20
46816;DHT22;32787;53.316;8.670;2023-12-04T03:11:01;-3275.80;92.40
46816;DHT22;32787;53.316;8.670;2023-12-04T03:13:28;-3275.80;92.60
46816;DHT22;32787;53.316;8.670;2023-12-04T03:15:54;-3275.70;92.70
46816;DHT22;32787;53.316;8.670;2023-12-04T03:18:20;-3275.60;92.80
46816;DHT22;32787;53.316;8.670;2023-12-04T03:20:45;-3275.70;93.10
46816;DHT22;32787;53.316;8.670;2023-12-04T03:23:11;-3275.90;92.80
46816;DHT22;32787;53.316;8.670;2023-12-04T03:25:37;-3275.90;92.50
46816;DHT22;32787;53.316;8.670;2023-12-04T03:28:02;-3275.80;92.70
46816;DHT22;32787;53.316;8.670;2023-12-04T03:30:28;-3275.90;92.60
46816;DHT22;32787;53.316;8.670;2023-12-04T03:32:54;-3275.80;92.60
46816;DHT22;32787;53.316;8.670;2023-12-04T03:35:19;-3275.80;92.70
46816;DHT22;32787;53.316;8.670;2023-12-04T03:37:45;-3275.80;92.90
46816;DHT22;32787;53.316;8.670;2023-12-04T03:40:11;-3275.90;92.90
46816;DHT22;32787;53.316;8.670;2023-12-04T03:42:36;-3275.90;92.70
46816;DHT22;32787;53.316;8.670;2023-12-04T03:45:03;-3275.90;92.70
46816;DHT22;32787;53.316;8.670;2023-12-04T03:47:28;-3275.90;93.00
46816;DHT22;32787;53.316;8.670;2023-12-04T03:49:54;-3275.90;92.80
46816;DHT22;32787;53.316;8.670;2023-12-04T03:52:20;-3275.90;92.80
46816;DHT22;32787;53.316;8.670;2023-12-04T03:54:45;-3275.90;93.00
46816;DHT22;32787;53.316;8.670;2023-12-04T03:57:11;-3275.80;93.20
46816;DHT22;32787;53.316;8.670;2023-12-04T03:59:37;-3276.00;93.40
46816;DHT22;32787;53.316;8.670;2023-12-04T04:02:02;-3275.90;93.50
46816;DHT22;32787;53.316;8.670;2023-12-04T04:04:28;-3275.80;93.40
46816;DHT22;32787;53.316;8.670;2023-12-04T04:06:54;-3276.00;93.50
46816;DHT22;32787;53.316;8.670;2023-12-04T04:09:19;-3275.90;93.50
46816;DHT22;32787;53.316;8.670;2023-12-04T04:11:45;-3276.00;93.60
46816;DHT22;32787;53.316;8.670;2023-12-04T04:14:11;-3276.00;93.70
46816;DHT22;32787;53.316;8.670;2023-12-04T04:16:37;-3276.00;93.50
46816;DHT22;32787;53.316;8.670;2023-12-04T04:19:02;-3275.80;93.60
46816;DHT22;32787;53.316;8.670;2023-12-04T04:21:28;-3275.80;94.00
46816;DHT22;32787;53.316;8.670;2023-12-04T04:23:54;-3275.80;94.10
46816;DHT22;32787;53.316;8.670;2023-12-04T04:26:19;-3275.80;94.30
46816;DHT22;32787;53.316;8.670;2023-12-04T04:28:45;-3275.80;94.20
46816;DHT22;32787;53.316;8.670;2023-12-04T04:31:10;-3275.80;94.20
46816;DHT22;32787;53.316;8.670;2023-12-04T04:33:36;-3275.80;94.20
46816;DHT22;32787;53.316;8.670;2023-12-04T04:36:02;-3275.90;94.30
46816;DHT22;32787;53.316;8.670;2023-12-04T04:38:28;-3275.80;94.30
46816;DHT22;32787;53.316;8.670;2023-12-04T04:40:53;-3276.00;94.40
46816;DHT22;32787;53.316;8.670;2023-12-04T04:43:19;-3276.00;94.30
46816;DHT22;32787;53.316;8.670;2023-12-04T04:45:45;-3275.90;94.30
46816;DHT22;32787;53.316;8.670;2023-12-04T04:48:11;-3275.80;94.40
46816;DHT22;32787;53.316;8.670;2023-12-04T04:50:36;-3275.90;94.40
46816;DHT22;32787;53.316;8.670;2023-12-04T04:53:02;-3275.90;94.40
46816;DHT22;32787;53.316;8.670;2023-12-04T04:55:28;-3276.00;94.50
46816;DHT22;32787;53.316;8.670;2023-12-04T04:57:53;-3276.00;94.40
46816;DHT22;32787;53.316;8.670;2023-12-04T05:00:19;-3276.00;94.30
46816;DHT22;32787;53.316;8.670;2023-12-04T05:02:45;-3276.00;94.40
46816;DHT22;32787;53.316;8.670;2023-12-04T05:05:11;-3276.00;94.30
46816;DHT22;32787;53.316;8.670;2023-12-04T05:07:37;-3276.00;94.40
46816;DHT22;32787;53.316;8.670;2023-12-04T05:10:03;-3276.10;94.40
46816;DHT22;32787;53.316;8.670;2023-12-04T05:12:29;-3276.10;94.30
46816;DHT22;32787;53.316;8.670;2023-12-04T05:14:55;-3276.30;94.20
46816;DHT22;32787;53.316;8.670;2023-12-04T05:17:20;-3276.10;93.90
46816;DHT22;32787;53.316;8.670;2023-12-04T05:19:46;-3276.20;94.10
46816;DHT22;32787;53.316;8.670;2023-12-04T05:22:11;-3276.10;94.10
46816;DHT22;32787;53.316;8.670;2023-12-04T05:24:37;-3276.10;94.20
46816;DHT22;32787;53.316;8.670;2023-12-04T05:27:03;-3276.10;94.20
46816;DHT22;32787;53.316;8.670;2023-12-04T05:29:29;-3276.10;94.10
46816;DHT22;32787;53.316;8.670;2023-12-04T05:31:54;-3276.00;94.20
46816;DHT22;32787;53.316;8.670;2023-12-04T05:34:20;-3276.10;94.20
46816;DHT22;32787;53.316;8.670;2023-12-04T05:36:46;-3276.20;94.20
46816;DHT22;32787;53.316;8.670;2023-12-04T05:39:11;-3276.10;94.20
46816;DHT22;32787;53.316;8.670;2023-12-04T05:41:37;-3276.30;94.30
46816;DHT22;32787;53.316;8.670;2023-12-04T05:44:03;-3276.20;94.00
46816;DHT22;32787;53.316;8.670;2023-12-04T05:46:28;-3276.20;94.10
46816;DHT22;32787;53.316;8.670;2023-12-04T05:48:54;-3276.20;93.90
46816;DHT22;32787;53.316;8.670;2023-12-04T05:51:20;-3276.20;94.10
46816;DHT22;32787;53.316;8.670;2023-12-04T05:53:46;-3276.20;94.20
46816;DHT22;32787;53.316;8.670;2023-12-04T05:56:11;-3276.10;94.20
46816;DHT22;32787;53.316;8.670;2023-12-04T05:58:37;-3276.30;94.20
46816;DHT22;32787;53.316;8.670;2023-12-04T06:01:03;-3276.30;94.10
46816;DHT22;32787;53.316;8.670;2023-12-04T06:03:28;-3276.20;94.00
46816;DHT22;32787;53.316;8.670;2023-12-04T06:05:54;-3276.30;94.20
46816;DHT22;32787;53.316;8.670;2023-12-04T06:08:20;-3276.30;94.00
46816;DHT22;32787;53.316;8.670;2023-12-04T06:10:46;-3276.30;94.00
46816;DHT22;32787;53.316;8.670;2023-12-04T06:13:11;-3276.30;94.10
46816;DHT22;32787;53.316;8.670;2023-12-04T06:15:37;-3276.30;94.10
46816;DHT22;32787;53.316;8.670;2023-12-04T06:18:03;-3276.30;94.10
46816;DHT22;32787;53.316;8.670;2023-12-04T06:20:30;-3276.30;94.20
46816;DHT22;32787;53.316;8.670;2023-12-04T06:22:55;-3276.30;94.20
46816;DHT22;32787;53.316;8.670;2023-12-04T06:25:22;-3276.20;94.30
46816;DHT22;32787;53.316;8.670;2023-12-04T06:27:48;-3276.40;94.30
46816;DHT22;32787;53.316;8.670;2023-12-04T06:30:14;-3276.40;94.20
46816;DHT22;32787;53.316;8.670;2023-12-04T06:32:40;-3276.40;94.20
46816;DHT22;32787;53.316;8.670;2023-12-04T06:35:06;-3276.40;94.00
46816;DHT22;32787;53.316;8.670;2023-12-04T06:37:32;-3276.30;94.20
46816;DHT22;32787;53.316;8.670;2023-12-04T06:40:00;-3276.30;94.40
46816;DHT22;32787;53.316;8.670;2023-12-04T06:42:28;-3276.30;94.40
46816;DHT22;32787;53.316;8.670;2023-12-04T06:44:54;-3276.30;94.30
46816;DHT22;32787;53.316;8.670;2023-12-04T06:47:22;-3276.40;94.40
46816;DHT22;32787;53.316;8.670;2023-12-04T06:49:48;-3276.40;94.30
46816;DHT22;32787;53.316;8.670;2023-12-04T06:52:14;-3276.50;94.20
46816;DHT22;32787;53.316;8.670;2023-12-04T06:54:39;-3276.50;94.00
46816;DHT22;32787;53.316;8.670;2023-12-04T06:57:05;-3276.40;94.00
46816;DHT22;32787;53.316;8.670;2023-12-04T06:59:31;-3276.50;94.10
46816;DHT22;32787;53.316;8.670;2023-12-04T07:01:57;-3276.30;94.00
46816;DHT22;32787;53.316;8.670;2023-12-04T07:04:22;-3276.30;94.30
46816;DHT22;32787;53.316;8.670;2023-12-04T07:06:48;-3276.40;94.50
46816;DHT22;32787;53.316;8.670;2023-12-04T07:09:14;-3276.40;94.60
46816;DHT22;32787;53.316;8.670;2023-12-04T07:11:40;-3276.40;94.70
46816;DHT22;32787;53.316;8.670;2023-12-04T07:14:06;-3276.40;94.60
46816;DHT22;32787;53.316;8.670;2023-12-04T07:16:39;-3276.40;94.50
46816;DHT22;32787;53.316;8.670;2023-12-04T07:19:05;-3276.50;94.40
46816;DHT22;32787;53.316;8.670;2023-12-04T07:21:31;-3276.40;94.30
46816;DHT22;32787;53.316;8.670;2023-12-04T07:23:56;-3276.50;94.60
46816;DHT22;32787;53.316;8.670;2023-12-04T07:26:22;-3276.50;94.40
46816;DHT22;32787;53.316;8.670;2023-12-04T07:28:48;-3276.50;94.40
46816;DHT22;32787;53.316;8.670;2023-12-04T07:31:13;-3276.60;94.30
46816;DHT22;32787;53.316;8.670;2023-12-04T07:33:39;-3276.60;94.20
46816;DHT22;32787;53.316;8.670;2023-12-04T07:36:05;-3276.60;94.20
46816;DHT22;32787;53.316;8.670;2023-12-04T07:38:30;-3276.60;93.90
46816;DHT22;32787;53.316;8.670;2023-12-04T07:40:56;-3276.60;94.00
46816;DHT22;32787;53.316;8.670;2023-12-04T07:43:21;-3276.60;93.90
46816;DHT22;32787;53.316;8.670;2023-12-04T07:45:47;-3276.70;94.00
46816;DHT22;32787;53.316;8.670;2023-12-04T07:48:13;-3276.70;93.90
46816;DHT22;32787;53.316;8.670;2023-12-04T07:50:38;0.00;93.70
46816;DHT22;32787;53.316;8.670;2023-12-04T07:53:05;-3276.70;93.50
46816;DHT22;32787;53.316;8.670;2023-12-04T07:55:31;-3276.60;93.60
46816;DHT22;32787;53.316;8.670;2023-12-04T07:57:56;-3276.50;93.80
46816;DHT22;32787;53.316;8.670;2023-12-04T08:00:22;-3276.70;93.80
46816;DHT22;32787;53.316;8.670;2023-12-04T08:02:51;-3276.60;93.80
46816;DHT22;32787;53.316;8.670;2023-12-04T08:05:17;-3276.70;93.90
46816;DHT22;32787;53.316;8.670;2023-12-04T08:07:42;0.00;93.80
46816;DHT22;32787;53.316;8.670;2023-12-04T08:10:08;0.00;93.60
46816;DHT22;32787;53.316;8.670;2023-12-04T08:12:34;0.00;93.20
46816;DHT22;32787;53.316;8.670;2023-12-04T08:15:00;-3276.70;93.10
46816;DHT22;32787;53.316;8.670;2023-12-04T08:17:27;-3276.60;93.30
46816;DHT22;32787;53.316;8.670;2023-12-04T08:19:52;-3276.70;93.50
46816;DHT22;32787;53.316;8.670;2023-12-04T08:22:19;-3276.70;93.50
46816;DHT22;32787;53.316;8.670;2023-12-04T08:24:45;-3276.70;93.50
46816;DHT22;32787;53.316;8.670;2023-12-04T08:27:11;-3276.70;93.30
46816;DHT22;32787;53.316;8.670;2023-12-04T08:29:36;0.00;93.00
46816;DHT22;32787;53.316;8.670;2023-12-04T08:32:02;0.00;93.00
46816;DHT22;32787;53.316;8.670;2023-12-04T08:34:28;-3276.70;93.00
46816;DHT22;32787;53.316;8.670;2023-12-04T08:36:53;0.00;93.10
46816;DHT22;32787;53.316;8.670;2023-12-04T08:39:19;0.00;92.70
46816;DHT22;32787;53.316;8.670;2023-12-04T08:41:46;0.00;92.70
46816;DHT22;32787;53.316;8.670;2023-12-04T08:44:13;0.00;92.40
46816;DHT22;32787;53.316;8.670;2023-12-04T08:46:38;0.00;92.30
46816;DHT22;32787;53.316;8.670;2023-12-04T08:49:04;0.00;92.10
46816;DHT22;32787;53.316;8.670;2023-12-04T08:51:29;0.10;92.10
46816;DHT22;32787;53.316;8.670;2023-12-04T08:53:56;0.10;92.00
46816;DHT22;32787;53.316;8.670;2023-12-04T08:56:22;0.00;91.80
46816;DHT22;32787;53.316;8.670;2023-12-04T08:58:48;0.10;91.50
46816;DHT22;32787;53.316;8.670;2023-12-04T09:01:16;0.00;91.70
46816;DHT22;32787;53.316;8.670;2023-12-04T09:03:41;0.00;91.80
46816;DHT22;32787;53.316;8.670;2023-12-04T09:06:07;0.10;91.40
46816;DHT22;32787;53.316;8.670;2023-12-04T09:08:34;0.00;91.30
46816;DHT22;32787;53.316;8.670;2023-12-04T09:11:00;0.10;91.10
46816;DHT22;32787;53.316;8.670;2023-12-04T09:13:25;0.10;90.80
46816;DHT22;32787;53.316;8.670;2023-12-04T09:15:51;0.10;90.80
46816;DHT22;32787;53.316;8.670;2023-12-04T09:18:17;0.10;90.50
46816;DHT22;32787;53.316;8.670;2023-12-04T09:20:43;0.00;90.30
46816;DHT22;32787;53.316;8.670;2023-12-04T09:23:09;0.10;90.40
46816;DHT22;32787;53.316;8.670;2023-12-04T09:25:35;0.10;90.10
46816;DHT22;32787;53.316;8.670;2023-12-04T09:28:02;0.10;89.90
46816;DHT22;32787;53.316;8.670;2023-12-04T09:30:28;0.10;89.60
46816;DHT22;32787;53.316;8.670;2023-12-04T09:32:54;0.20;89.50
46816;DHT22;32787;53.316;8.670;2023-12-04T09:35:19;0.20;89.50
46816;DHT22;32787;53.316;8.670;2023-12-04T09:37:45;0.20;89.50
46816;DHT22;32787;53.316;8.670;2023-12-04T09:40:11;0.10;89.50
46816;DHT22;32787;53.316;8.670;2023-12-04T09:42:39;0.10;89.30
46816;DHT22;32787;53.316;8.670;2023-12-04T09:45:05;0.10;89.10
46816;DHT22;32787;53.316;8.670;2023-12-04T09:47:34;0.20;89.10
46816;DHT22;32787;53.316;8.670;2023-12-04T09:50:00;0.20;89.10
46816;DHT22;32787;53.316;8.670;2023-12-04T09:52:27;0.20;88.90
46816;DHT22;32787;53.316;8.670;2023-12-04T09:54:53;0.30;88.80
46816;DHT22;32787;53.316;8.670;2023-12-04T09:57:19;0.30;88.20
46816;DHT22;32787;53.316;8.670;2023-12-04T09:59:45;0.30;88.70
46816;DHT22;32787;53.316;8.670;2023-12-04T10:02:12;0.40;88.50
46816;DHT22;32787;53.316;8.670;2023-12-04T10:04:37;0.50;87.80
46816;DHT22;32787;53.316;8.670;2023-12-04T10:07:03;0.40;87.80
46816;DHT22;32787;53.316;8.670;2023-12-04T10:09:30;0.40;87.40
46816;DHT22;32787;53.316;8.670;2023-12-04T10:11:56;0.40;87.80
46816;DHT22;32787;53.316;8.670;2023-12-04T10:14:23;0.30;87.60
46816;DHT22;32787;53.316;8.670;2023-12-04T10:16:49;0.40;87.80
46816;DHT22;32787;53.316;8.670;2023-12-04T10:19:20;0.40;87.20
46816;DHT22;32787;53.316;8.670;2023-12-04T10:21:50;0.40;87.60
46816;DHT22;32787;53.316;8.670;2023-12-04T10:24:30;0.40;87.40
46816;DHT22;32787;53.316;8.670;2023-12-04T10:26:55;0.40;87.20
46816;DHT22;32787;53.316;8.670;2023-12-04T10:29:22;0.40;87.30
46816;DHT22;32787;53.316;8.670;2023-12-04T10:31:47;0.40;87.10
46816;DHT22;32787;53.316;8.670;2023-12-04T10:34:16;0.40;87.40
46816;DHT22;32787;53.316;8.670;2023-12-04T10:36:42;0.40;87.40
46816;DHT22;32787;53.316;8.670;2023-12-04T10:39:08;0.40;87.20
46816;DHT22;32787;53.316;8.670;2023-12-04T10:41:33;0.40;87.40
46816;DHT22;32787;53.316;8.670;2023-12-04T10:44:00;0.40;87.60
46816;DHT22;32787;53.316;8.670;2023-12-04T10:46:27;0.50;87.50
46816;DHT22;32787;53.316;8.670;2023-12-04T10:48:53;0.50;86.70
46816;DHT22;32787;53.316;8.670;2023-12-04T10:51:19;0.50;87.00
46816;DHT22;32787;53.316;8.670;2023-12-04T10:53:47;0.60;87.10
46816;DHT22;32787;53.316;8.670;2023-12-04T10:56:31;0.50;86.80
46816;DHT22;32787;53.316;8.670;2023-12-04T10:59:00;0.50;87.30
46816;DHT22;32787;53.316;8.670;2023-12-04T11:01:27;0.70;87.20
46816;DHT22;32787;53.316;8.670;2023-12-04T11:03:59;0.60;86.90
46816;DHT22;32787;53.316;8.670;2023-12-04T11:06:27;0.50;86.80
46816;DHT22;32787;53.316;8.670;2023-12-04T11:08:56;0.50;87.30
46816;DHT22;32787;53.316;8.670;2023-12-04T11:11:34;0.60;86.70
46816;DHT22;32787;53.316;8.670;2023-12-04T11:14:05;0.60;86.60
46816;DHT22;32787;53.316;8.670;2023-12-04T11:16:45;0.60;86.80
46816;DHT22;32787;53.316;8.670;2023-12-04T11:19:23;0.50;87.10
46816;DHT22;32787;53.316;8.670;2023-12-04T11:21:52;0.60;86.80
46816;DHT22;32787;53.316;8.670;2023-12-04T11:24:18;0.70;86.40
46816;DHT22;32787;53.316;8.670;2023-12-04T11:26:44;0.70;86.30
46816;DHT22;32787;53.316;8.670;2023-12-04T11:29:12;0.60;86.60
46816;DHT22;32787;53.316;8.670;2023-12-04T11:31:38;0.70;86.80
46816;DHT22;32787;53.316;8.670;2023-12-04T11:34:04;0.70;86.30
46816;DHT22;32787;53.316;8.670;2023-12-04T11:36:30;0.80;85.90
46816;DHT22;32787;53.316;8.670;2023-12-04T11:38:56;0.80;85.90
46816;DHT22;32787;53.316;8.670;2023-12-04T11:41:25;0.90;86.40
46816;DHT22;32787;53.316;8.670;2023-12-04T11:43:52;0.90;85.40
46816;DHT22;32787;53.316;8.670;2023-12-04T11:46:22;0.80;85.50
46816;DHT22;32787;53.316;8.670;2023-12-04T11:48:49;0.80;85.70
46816;DHT22;32787;53.316;8.670;2023-12-04T11:54:04;0.80;85.90
46816;DHT22;32787;53.316;8.670;2023-12-04T11:56:30;0.90;85.50
46816;DHT22;32787;53.316;8.670;2023-12-04T11:59:03;0.90;85.20
46816;DHT22;32787;53.316;8.670;2023-12-04T12:01:32;0.90;85.80
46816;DHT22;32787;53.316;8.670;2023-12-04T12:03:59;0.80;85.50
46816;DHT22;32787;53.316;8.670;2023-12-04T12:06:24;0.90;85.00
46816;DHT22;32787;53.316;8.670;2023-12-04T12:08:50;0.90;84.90
46816;DHT22;32787;53.316;8.670;2023-12-04T12:11:17;0.90;85.50
46816;DHT22;32787;53.316;8.670;2023-12-04T12:13:42;0.90;85.50
46816;DHT22;32787;53.316;8.670;2023-12-04T12:16:11;0.90;85.10
46816;DHT22;32787;53.316;8.670;2023-12-04T12:18:36;0.90;84.80
46816;DHT22;32787;53.316;8.670;2023-12-04T12:21:02;1.00;85.00
46816;DHT22;32787;53.316;8.670;2023-12-04T12:23:28;0.90;85.00
46816;DHT22;32787;53.316;8.670;2023-12-04T12:25:54;1.00;84.50
46816;DHT22;32787;53.316;8.670;2023-12-04T12:28:20;1.10;83.90
46816;DHT22;32787;53.316;8.670;2023-12-04T12:30:46;0.90;84.80
46816;DHT22;32787;53.316;8.670;2023-12-04T12:33:15;1.00;85.00
46816;DHT22;32787;53.316;8.670;2023-12-04T12:35:41;0.90;85.20
46816;DHT22;32787;53.316;8.670;2023-12-04T12:38:07;0.90;85.40
46816;DHT22;32787;53.316;8.670;2023-12-04T12:40:33;1.00;85.10
46816;DHT22;32787;53.316;8.670;2023-12-04T12:43:09;1.00;85.00
46816;DHT22;32787;53.316;8.670;2023-12-04T12:45:44;1.10;84.50
46816;DHT22;32787;53.316;8.670;2023-12-04T12:48:17;1.10;84.20
46816;DHT22;32787;53.316;8.670;2023-12-04T12:50:43;1.10;83.50
46816;DHT22;32787;53.316;8.670;2023-12-04T12:53:12;1.00;83.80
46816;DHT22;32787;53.316;8.670;2023-12-04T12:55:41;1.10;83.80
46816;DHT22;32787;53.316;8.670;2023-12-04T12:58:12;1.10;84.10
46816;DHT22;32787;53.316;8.670;2023-12-04T13:00:43;1.10;84.20
46816;DHT22;32787;53.316;8.670;2023-12-04T13:03:15;1.10;84.20
46816;DHT22;32787;53.316;8.670;2023-12-04T13:05:41;1.10;84.00
46816;DHT22;32787;53.316;8.670;2023-12-04T13:08:07;1.10;84.10
46816;DHT22;32787;53.316;8.670;2023-12-04T13:10:33;1.10;84.20
46816;DHT22;32787;53.316;8.670;2023-12-04T13:12:58;1.10;84.00
46816;DHT22;32787;53.316;8.670;2023-12-04T13:15:28;1.10;83.90
46816;DHT22;32787;53.316;8.670;2023-12-04T13:17:54;1.00;84.40
46816;DHT22;32787;53.316;8.670;2023-12-04T13:20:20;1.00;84.00
46816;DHT22;32787;53.316;8.670;2023-12-04T13:22:45;0.90;84.80
46816;DHT22;32787;53.316;8.670;2023-12-04T13:25:11;0.90;84.90
46816;DHT22;32787;53.316;8.670;2023-12-04T13:27:37;1.00;84.70
46816;DHT22;32787;53.316;8.670;2023-12-04T13:30:09;0.90;84.20
46816;DHT22;32787;53.316;8.670;2023-12-04T13:32:36;1.00;84.20
46816;DHT22;32787;53.316;8.670;2023-12-04T13:35:03;1.00;84.00
46816;DHT22;32787;53.316;8.670;2023-12-04T13:37:30;1.00;84.30
46816;DHT22;32787;53.316;8.670;2023-12-04T13:39:56;1.10;84.40
46816;DHT22;32787;53.316;8.670;2023-12-04T13:42:29;1.10;84.00
46816;DHT22;32787;53.316;8.670;2023-12-04T13:45:13;1.00;83.70
46816;DHT22;32787;53.316;8.670;2023-12-04T13:47:39;1.00;84.30
46816;DHT22;32787;53.316;8.670;2023-12-04T13:50:08;1.00;84.20
46816;DHT22;32787;53.316;8.670;2023-12-04T13:52:35;0.90;84.50
46816;DHT22;32787;53.316;8.670;2023-12-04T13:55:01;0.90;84.40
46816;DHT22;32787;53.316;8.670;2023-12-04T13:57:27;0.90;84.30
46816;DHT22;32787;53.316;8.670;2023-12-04T13:59:59;1.00;84.90
46816;DHT22;32787;53.316;8.670;2023-12-04T14:02:25;1.10;84.20
46816;DHT22;32787;53.316;8.670;2023-12-04T14:04:51;0.90;84.60
46816;DHT22;32787;53.316;8.670;2023-12-04T14:07:17;0.90;84.90
46816;DHT22;32787;53.316;8.670;2023-12-04T14:09:44;1.00;84.50
46816;DHT22;32787;53.316;8.670;2023-12-04T14:12:13;0.90;84.20
46816;DHT22;32787;53.316;8.670;2023-12-04T14:14:41;0.90;84.60
46816;DHT22;32787;53.316;8.670;2023-12-04T14:17:07;0.90;84.30
46816;DHT22;32787;53.316;8.670;2023-12-04T14:19:34;0.90;84.10
46816;DHT22;32787;53.316;8.670;2023-12-04T14:22:00;0.90;84.40
46816;DHT22;32787;53.316;8.670;2023-12-04T14:24:25;0.90;84.20
46816;DHT22;32787;53.316;8.670;2023-12-04T14:26:51;0.90;83.60
46816;DHT22;32787;53.316;8.670;2023-12-04T14:29:19;0.90;83.70
46816;DHT22;32787;53.316;8.670;2023-12-04T14:31:45;0.90;83.60
46816;DHT22;32787;53.316;8.670;2023-12-04T14:34:11;0.80;84.40
46816;DHT22;32787;53.316;8.670;2023-12-04T14:36:37;0.80;84.00
46816;DHT22;32787;53.316;8.670;2023-12-04T14:39:04;0.80;84.30
46816;DHT22;32787;53.316;8.670;2023-12-04T14:41:31;0.80;83.90
46816;DHT22;32787;53.316;8.670;2023-12-04T14:43:57;0.90;83.10
46816;DHT22;32787;53.316;8.670;2023-12-04T14:46:22;0.90;83.90
46816;DHT22;32787;53.316;8.670;2023-12-04T14:48:48;0.80;84.00
46816;DHT22;32787;53.316;8.670;2023-12-04T14:51:14;0.70;84.10
46816;DHT22;32787;53.316;8.670;2023-12-04T14:53:40;0.80;84.30
46816;DHT22;32787;53.316;8.670;2023-12-04T14:56:12;0.70;83.70
46816;DHT22;32787;53.316;8.670;2023-12-04T14:58:44;0.80;83.70
46816;DHT22;32787;53.316;8.670;2023-12-04T15:01:10;0.90;83.10
46816;DHT22;32787;53.316;8.670;2023-12-04T15:03:39;0.80;83.60
46816;DHT22;32787;53.316;8.670;2023-12-04T15:06:13;0.70;83.50
46816;DHT22;32787;53.316;8.670;2023-12-04T15:08:39;0.80;83.60
46816;DHT22;32787;53.316;8.670;2023-12-04T15:11:13;0.90;83.10